VLG178Z LEBL-EDDH
Flight info
| Callsign | VLG178Z |
|---|---|
| Flight time | 2h 5m |
| Altitude | 30000 |
| Route | DALIN DCT PIVUS DCT DIBER/N0443F380 DCT ADITA DCT MAXIR DCT LUSOL DCT BODRU DCT OKTET DCT IRMAR DCT KINES DCT VANAS DCT ESOKO DCT GODRA/N0449F390 DCT LOKTA DCT TEDGO DCT HAREM DCT LOHRE DCT ELNAT/N0451F380 P605 NOLGO NOLGO6A |
| Aircraft | A20N/M-SDE2E3FGHIRWXY/LB1 |
Departure
| Time | 2026-05-07 18:27 |
|---|---|
| Airport | Josep Tarradellas Barcelona-El Prat Airport (LEBL) |
Arrival
| Time | 2026-05-07 20:33 |
|---|---|
| Airport | Hamburg Helmut Schmidt Airport (EDDH) |
| Time | Latitude | Longitude | Altitude | Speed | Heading |
|---|---|---|---|---|---|
| 2026-05-07 17:55 | 41.29071 | 2.08159 | 19 ft | 0 kts | 335° |
| 2026-05-07 18:17 | 41.29062 | 2.08165 | 18 ft | 4 kts | 336° |
| 2026-05-07 18:17 | 41.29037 | 2.08178 | 20 ft | 4 kts | 342° |
| 2026-05-07 18:17 | 41.29011 | 2.08187 | 20 ft | 4 kts | 358° |
| 2026-05-07 18:18 | 41.28996 | 2.08186 | 20 ft | 4 kts | 28° |
| 2026-05-07 18:18 | 41.28986 | 2.08176 | 20 ft | 1 kts | 65° |
| 2026-05-07 18:21 | 41.28987 | 2.08178 | 20 ft | 1 kts | 65° |
| 2026-05-07 18:21 | 41.28994 | 2.08199 | 21 ft | 4 kts | 65° |
| 2026-05-07 18:21 | 41.29009 | 2.08244 | 19 ft | 7 kts | 65° |
| 2026-05-07 18:22 | 41.29026 | 2.08303 | 18 ft | 8 kts | 83° |
| 2026-05-07 18:22 | 41.29006 | 2.08342 | 18 ft | 9 kts | 157° |
| 2026-05-07 18:22 | 41.28905 | 2.08311 | 18 ft | 13 kts | 199° |
| 2026-05-07 18:22 | 41.28817 | 2.08270 | 16 ft | 13 kts | 199° |
| 2026-05-07 18:23 | 41.28756 | 2.08190 | 15 ft | 14 kts | 245° |
| 2026-05-07 18:23 | 41.28718 | 2.08078 | 15 ft | 12 kts | 245° |
| 2026-05-07 18:23 | 41.28687 | 2.07992 | 15 ft | 10 kts | 236° |
| 2026-05-07 18:23 | 41.28632 | 2.07976 | 16 ft | 8 kts | 174° |
| 2026-05-07 18:24 | 41.28592 | 2.07937 | 16 ft | 10 kts | 241° |
| 2026-05-07 18:24 | 41.28558 | 2.07841 | 16 ft | 13 kts | 245° |
| 2026-05-07 18:24 | 41.28519 | 2.07728 | 17 ft | 16 kts | 245° |
| 2026-05-07 18:24 | 41.28481 | 2.07616 | 18 ft | 11 kts | 245° |
| 2026-05-07 18:25 | 41.28444 | 2.07508 | 16 ft | 14 kts | 245° |
| 2026-05-07 18:25 | 41.28404 | 2.07392 | 16 ft | 14 kts | 244° |
| 2026-05-07 18:25 | 41.28329 | 2.07339 | 16 ft | 8 kts | 174° |
| 2026-05-07 18:25 | 41.28272 | 2.07370 | 17 ft | 10 kts | 155° |
| 2026-05-07 18:26 | 41.28235 | 2.07436 | 17 ft | 10 kts | 93° |
| 2026-05-07 18:26 | 41.28259 | 2.07516 | 21 ft | 13 kts | 65° |
| 2026-05-07 18:26 | 41.28414 | 2.07971 | 19 ft | 96 kts | 65° |
| 2026-05-07 18:26 | 41.28787 | 2.09058 | 24 ft | 161 kts | 66° |
| 2026-05-07 18:27 | 41.29268 | 2.10543 | 447 ft | 184 kts | 73° |
| 2026-05-07 18:27 | 41.29346 | 2.12353 | 1025 ft | 209 kts | 97° |
| 2026-05-07 18:27 | 41.29077 | 2.14338 | 1847 ft | 229 kts | 101° |
| 2026-05-07 18:27 | 41.28761 | 2.16514 | 2666 ft | 247 kts | 100° |
| 2026-05-07 18:28 | 41.28497 | 2.18759 | 3427 ft | 250 kts | 98° |
| 2026-05-07 18:28 | 41.28277 | 2.21134 | 4202 ft | 266 kts | 97° |
| 2026-05-07 18:28 | 41.28078 | 2.23649 | 4978 ft | 281 kts | 96° |
| 2026-05-07 18:28 | 41.27882 | 2.26282 | 5657 ft | 299 kts | 96° |
| 2026-05-07 18:29 | 41.27670 | 2.29175 | 5931 ft | 328 kts | 95° |
| 2026-05-07 18:29 | 41.27460 | 2.32294 | 5990 ft | 342 kts | 91° |
| 2026-05-07 18:29 | 41.27826 | 2.35373 | 6028 ft | 342 kts | 70° |
| 2026-05-07 18:29 | 41.29021 | 2.38122 | 6309 ft | 344 kts | 55° |
| 2026-05-07 18:30 | 41.30476 | 2.40673 | 6673 ft | 347 kts | 53° |
| 2026-05-07 18:30 | 41.31954 | 2.43195 | 7028 ft | 348 kts | 53° |
| 2026-05-07 18:30 | 41.33435 | 2.45767 | 7407 ft | 351 kts | 53° |
| 2026-05-07 18:30 | 41.34895 | 2.48363 | 7784 ft | 354 kts | 54° |
| 2026-05-07 18:31 | 41.36363 | 2.51013 | 8162 ft | 356 kts | 54° |
| 2026-05-07 18:31 | 41.37836 | 2.53694 | 8546 ft | 359 kts | 54° |
| 2026-05-07 18:31 | 41.39317 | 2.56400 | 8935 ft | 362 kts | 54° |
| 2026-05-07 18:31 | 41.40801 | 2.59115 | 9319 ft | 365 kts | 54° |
| 2026-05-07 18:32 | 41.42306 | 2.61870 | 9708 ft | 368 kts | 54° |
| 2026-05-07 18:32 | 41.43798 | 2.64603 | 10093 ft | 370 kts | 54° |
| 2026-05-07 18:32 | 41.45324 | 2.67402 | 10459 ft | 372 kts | 54° |
| 2026-05-07 18:32 | 41.46852 | 2.70204 | 10823 ft | 374 kts | 54° |
| 2026-05-07 18:33 | 41.48369 | 2.72990 | 11190 ft | 377 kts | 54° |
| 2026-05-07 18:33 | 41.49915 | 2.75833 | 11567 ft | 379 kts | 54° |
| 2026-05-07 18:33 | 41.51405 | 2.78759 | 11945 ft | 381 kts | 59° |
| 2026-05-07 18:33 | 41.52670 | 2.81856 | 12326 ft | 384 kts | 62° |
| 2026-05-07 18:34 | 41.53954 | 2.85023 | 12723 ft | 387 kts | 62° |
| 2026-05-07 18:34 | 41.55251 | 2.88206 | 13117 ft | 390 kts | 62° |
| 2026-05-07 18:34 | 41.56538 | 2.91363 | 13514 ft | 393 kts | 62° |
| 2026-05-07 18:34 | 41.57852 | 2.94595 | 13899 ft | 395 kts | 62° |
| 2026-05-07 18:35 | 41.59163 | 2.97821 | 14254 ft | 398 kts | 62° |
| 2026-05-07 18:35 | 41.60493 | 3.01102 | 14611 ft | 400 kts | 62° |
| 2026-05-07 18:35 | 41.61811 | 3.04357 | 14982 ft | 403 kts | 61° |
| 2026-05-07 18:35 | 41.63148 | 3.07661 | 15350 ft | 405 kts | 61° |
| 2026-05-07 18:36 | 41.64506 | 3.11021 | 15731 ft | 408 kts | 61° |
| 2026-05-07 18:36 | 41.65844 | 3.14336 | 16102 ft | 411 kts | 61° |
| 2026-05-07 18:36 | 41.67218 | 3.17743 | 16489 ft | 415 kts | 61° |
| 2026-05-07 18:36 | 41.68514 | 3.21220 | 16882 ft | 418 kts | 66° |
| 2026-05-07 18:37 | 41.69696 | 3.24780 | 17278 ft | 422 kts | 65° |
| 2026-05-07 18:37 | 41.70903 | 3.28390 | 17674 ft | 425 kts | 65° |
| 2026-05-07 18:37 | 41.72105 | 3.31977 | 18071 ft | 429 kts | 65° |
| 2026-05-07 18:37 | 41.73338 | 3.35663 | 18443 ft | 432 kts | 65° |
| 2026-05-07 18:38 | 41.74556 | 3.39311 | 18794 ft | 436 kts | 65° |
| 2026-05-07 18:38 | 41.75800 | 3.43047 | 19152 ft | 438 kts | 66° |
| 2026-05-07 18:38 | 41.77050 | 3.46806 | 19516 ft | 441 kts | 66° |
| 2026-05-07 18:38 | 41.78288 | 3.50531 | 19877 ft | 444 kts | 66° |
| 2026-05-07 18:39 | 41.79556 | 3.54355 | 20248 ft | 447 kts | 66° |
| 2026-05-07 18:39 | 41.80812 | 3.58148 | 20618 ft | 450 kts | 66° |
| 2026-05-07 18:39 | 41.82094 | 3.62025 | 20998 ft | 454 kts | 66° |
| 2026-05-07 18:39 | 41.83364 | 3.65871 | 21381 ft | 457 kts | 66° |
| 2026-05-07 18:40 | 41.84660 | 3.69799 | 21770 ft | 460 kts | 67° |
| 2026-05-07 18:40 | 41.85961 | 3.73748 | 22162 ft | 464 kts | 67° |
| 2026-05-07 18:40 | 41.87274 | 3.77737 | 22576 ft | 468 kts | 67° |
| 2026-05-07 18:40 | 41.88576 | 3.81702 | 22971 ft | 471 kts | 67° |
| 2026-05-07 18:41 | 41.89909 | 3.85767 | 23377 ft | 475 kts | 67° |
| 2026-05-07 18:41 | 41.91250 | 3.89862 | 23752 ft | 479 kts | 67° |
| 2026-05-07 18:41 | 41.92581 | 3.93931 | 24100 ft | 482 kts | 68° |
| 2026-05-07 18:41 | 41.93935 | 3.98081 | 24446 ft | 485 kts | 68° |
| 2026-05-07 18:42 | 41.95294 | 4.02252 | 24808 ft | 488 kts | 68° |
| 2026-05-07 18:42 | 41.96662 | 4.06455 | 25168 ft | 491 kts | 68° |
| 2026-05-07 18:42 | 41.98037 | 4.10688 | 25532 ft | 494 kts | 68° |
| 2026-05-07 18:42 | 41.99401 | 4.14892 | 25900 ft | 496 kts | 68° |
| 2026-05-07 18:43 | 42.00741 | 4.19031 | 26260 ft | 499 kts | 68° |
| 2026-05-07 18:43 | 42.02133 | 4.23336 | 26640 ft | 501 kts | 68° |
| 2026-05-07 18:43 | 42.03518 | 4.27623 | 27024 ft | 503 kts | 68° |
| 2026-05-07 18:43 | 42.04900 | 4.31911 | 27411 ft | 504 kts | 68° |
| 2026-05-07 18:44 | 42.06318 | 4.36246 | 27811 ft | 506 kts | 65° |
| 2026-05-07 18:44 | 42.08084 | 4.40352 | 28205 ft | 507 kts | 56° |
| 2026-05-07 18:44 | 42.10289 | 4.44073 | 28609 ft | 508 kts | 47° |
| 2026-05-07 18:44 | 42.12864 | 4.47359 | 29021 ft | 508 kts | 41° |
| 2026-05-07 18:45 | 42.15482 | 4.50489 | 29437 ft | 508 kts | 41° |
| 2026-05-07 18:45 | 42.18127 | 4.53671 | 29861 ft | 508 kts | 41° |
| 2026-05-07 18:45 | 42.20763 | 4.56851 | 30248 ft | 508 kts | 41° |
| 2026-05-07 18:45 | 42.23397 | 4.60034 | 30619 ft | 508 kts | 41° |
| 2026-05-07 18:46 | 42.26011 | 4.63193 | 30982 ft | 508 kts | 41° |
| 2026-05-07 18:46 | 42.28647 | 4.66382 | 31357 ft | 507 kts | 41° |
| 2026-05-07 18:46 | 42.31253 | 4.69538 | 31735 ft | 507 kts | 41° |
| 2026-05-07 18:46 | 42.33884 | 4.72729 | 32121 ft | 507 kts | 41° |
| 2026-05-07 18:47 | 42.36515 | 4.75922 | 32511 ft | 506 kts | 41° |
| 2026-05-07 18:47 | 42.39119 | 4.79086 | 32907 ft | 505 kts | 41° |
| 2026-05-07 18:47 | 42.41739 | 4.82275 | 33306 ft | 504 kts | 41° |
| 2026-05-07 18:47 | 42.44323 | 4.85422 | 33699 ft | 503 kts | 42° |
| 2026-05-07 18:48 | 42.46933 | 4.88604 | 34104 ft | 501 kts | 42° |
| 2026-05-07 18:48 | 42.49529 | 4.91775 | 34458 ft | 499 kts | 41° |
| 2026-05-07 18:48 | 42.52063 | 4.94873 | 34810 ft | 497 kts | 41° |
| 2026-05-07 18:48 | 42.54633 | 4.98018 | 35180 ft | 494 kts | 41° |
| 2026-05-07 18:49 | 42.57189 | 5.01150 | 35551 ft | 491 kts | 41° |
| 2026-05-07 18:49 | 42.59693 | 5.04223 | 35914 ft | 488 kts | 41° |
| 2026-05-07 18:49 | 42.62216 | 5.07321 | 36292 ft | 484 kts | 41° |
| 2026-05-07 18:49 | 42.64690 | 5.10364 | 36681 ft | 480 kts | 41° |
| 2026-05-07 18:50 | 42.67162 | 5.13408 | 37075 ft | 476 kts | 41° |
| 2026-05-07 18:50 | 42.69617 | 5.16434 | 37480 ft | 471 kts | 41° |
| 2026-05-07 18:50 | 42.72008 | 5.19385 | 37880 ft | 465 kts | 41° |
| 2026-05-07 18:50 | 42.74348 | 5.22278 | 38284 ft | 459 kts | 41° |
| 2026-05-07 18:51 | 42.76717 | 5.25209 | 38536 ft | 457 kts | 41° |
| 2026-05-07 18:51 | 42.81420 | 5.31033 | 38709 ft | 459 kts | 41° |
| 2026-05-07 18:52 | 42.86164 | 5.36918 | 38879 ft | 461 kts | 41° |
| 2026-05-07 18:52 | 42.90903 | 5.42810 | 38970 ft | 464 kts | 41° |
| 2026-05-07 18:53 | 42.95694 | 5.48780 | 38974 ft | 470 kts | 41° |
| 2026-05-07 18:53 | 43.00576 | 5.54877 | 38970 ft | 477 kts | 41° |
| 2026-05-07 18:54 | 43.05491 | 5.61029 | 38969 ft | 483 kts | 41° |
| 2026-05-07 18:54 | 43.10460 | 5.67263 | 38973 ft | 490 kts | 41° |
| 2026-05-07 18:55 | 43.15480 | 5.73575 | 38969 ft | 496 kts | 41° |
| 2026-05-07 18:55 | 43.20865 | 5.79491 | 38969 ft | 497 kts | 26° |
| 2026-05-07 18:56 | 43.27173 | 5.83005 | 38970 ft | 491 kts | 15° |
| 2026-05-07 18:56 | 43.33616 | 5.86121 | 38967 ft | 492 kts | 16° |
| 2026-05-07 18:57 | 43.40024 | 5.89452 | 38967 ft | 492 kts | 17° |
| 2026-05-07 18:57 | 43.46420 | 5.92873 | 38968 ft | 493 kts | 18° |
| 2026-05-07 18:58 | 43.52807 | 5.96307 | 38971 ft | 493 kts | 18° |
| 2026-05-07 18:58 | 43.59163 | 5.99732 | 38971 ft | 493 kts | 18° |
| 2026-05-07 18:59 | 43.65561 | 6.03185 | 38978 ft | 493 kts | 18° |
| 2026-05-07 18:59 | 43.71948 | 6.06640 | 38976 ft | 493 kts | 18° |
| 2026-05-07 19:00 | 43.77257 | 6.09518 | 38975 ft | 493 kts | 18° |
| 2026-05-07 19:00 | 43.83638 | 6.12984 | 38975 ft | 492 kts | 18° |
| 2026-05-07 19:01 | 43.90020 | 6.16459 | 38971 ft | 492 kts | 18° |
| 2026-05-07 19:01 | 43.96361 | 6.19919 | 38973 ft | 491 kts | 18° |
| 2026-05-07 19:02 | 44.02754 | 6.23415 | 38976 ft | 491 kts | 18° |
| 2026-05-07 19:02 | 44.06168 | 6.25285 | 38976 ft | 490 kts | 18° |
| 2026-05-07 19:03 | 44.11951 | 6.28460 | 38977 ft | 489 kts | 18° |
| 2026-05-07 19:03 | 44.18309 | 6.31957 | 38968 ft | 489 kts | 18° |
| 2026-05-07 19:04 | 44.24623 | 6.35439 | 38977 ft | 488 kts | 18° |
| 2026-05-07 19:04 | 44.30927 | 6.38923 | 38966 ft | 487 kts | 18° |
| 2026-05-07 19:05 | 44.37207 | 6.42401 | 38966 ft | 487 kts | 18° |
| 2026-05-07 19:05 | 44.43467 | 6.45879 | 38966 ft | 486 kts | 18° |
| 2026-05-07 19:06 | 44.49743 | 6.49370 | 38975 ft | 486 kts | 18° |
| 2026-05-07 19:06 | 44.59168 | 6.54629 | 38980 ft | 485 kts | 18° |
| 2026-05-07 19:07 | 44.65434 | 6.58136 | 38980 ft | 484 kts | 18° |
| 2026-05-07 19:07 | 44.71695 | 6.61650 | 38980 ft | 483 kts | 18° |
| 2026-05-07 19:08 | 44.77927 | 6.65154 | 38980 ft | 483 kts | 18° |
| 2026-05-07 19:08 | 44.84158 | 6.68666 | 38988 ft | 483 kts | 18° |
| 2026-05-07 19:09 | 44.90398 | 6.72191 | 38978 ft | 482 kts | 18° |
| 2026-05-07 19:09 | 44.96602 | 6.75706 | 38974 ft | 481 kts | 18° |
| 2026-05-07 19:10 | 45.02766 | 6.79205 | 38949 ft | 477 kts | 18° |
| 2026-05-07 19:10 | 45.08914 | 6.82701 | 38969 ft | 477 kts | 18° |
| 2026-05-07 19:11 | 45.15111 | 6.86234 | 38978 ft | 478 kts | 18° |
| 2026-05-07 19:11 | 45.21272 | 6.89755 | 38993 ft | 479 kts | 18° |
| 2026-05-07 19:12 | 45.27450 | 6.93295 | 39008 ft | 480 kts | 18° |
| 2026-05-07 19:12 | 45.33678 | 6.96873 | 39011 ft | 481 kts | 18° |
| 2026-05-07 19:13 | 45.39877 | 7.00441 | 39012 ft | 481 kts | 18° |
| 2026-05-07 19:13 | 45.46082 | 7.04021 | 39018 ft | 482 kts | 18° |
| 2026-05-07 19:14 | 45.52287 | 7.07611 | 39016 ft | 482 kts | 18° |
| 2026-05-07 19:14 | 45.58505 | 7.11213 | 38998 ft | 483 kts | 18° |
| 2026-05-07 19:15 | 45.64665 | 7.14796 | 38980 ft | 478 kts | 19° |
| 2026-05-07 19:15 | 45.70856 | 7.18399 | 38976 ft | 479 kts | 19° |
| 2026-05-07 19:16 | 45.76970 | 7.21970 | 38977 ft | 479 kts | 19° |
| 2026-05-07 19:16 | 45.83166 | 7.25596 | 38974 ft | 479 kts | 19° |
| 2026-05-07 19:17 | 45.89305 | 7.29200 | 38971 ft | 477 kts | 19° |
| 2026-05-07 19:17 | 45.95428 | 7.32801 | 38974 ft | 475 kts | 19° |
| 2026-05-07 19:18 | 46.01546 | 7.36408 | 38955 ft | 474 kts | 19° |
| 2026-05-07 19:18 | 46.07635 | 7.40006 | 38941 ft | 474 kts | 19° |
| 2026-05-07 19:19 | 46.13766 | 7.43639 | 38934 ft | 474 kts | 19° |
| 2026-05-07 19:19 | 46.19848 | 7.47252 | 38939 ft | 474 kts | 19° |
| 2026-05-07 19:20 | 46.25946 | 7.50881 | 38951 ft | 474 kts | 19° |
| 2026-05-07 19:20 | 46.32054 | 7.54526 | 38963 ft | 475 kts | 19° |
| 2026-05-07 19:21 | 46.38142 | 7.58167 | 38982 ft | 475 kts | 19° |
| 2026-05-07 19:21 | 46.44239 | 7.61824 | 39002 ft | 476 kts | 19° |
| 2026-05-07 19:22 | 46.50364 | 7.65504 | 39014 ft | 476 kts | 19° |
| 2026-05-07 19:22 | 46.56515 | 7.69206 | 39026 ft | 477 kts | 19° |
| 2026-05-07 19:23 | 46.62396 | 7.73713 | 39030 ft | 482 kts | 29° |
| 2026-05-07 19:23 | 46.68079 | 7.78883 | 39034 ft | 482 kts | 28° |
| 2026-05-07 19:24 | 46.73774 | 7.84027 | 39037 ft | 483 kts | 29° |
| 2026-05-07 19:24 | 46.79464 | 7.89201 | 39040 ft | 482 kts | 29° |
| 2026-05-07 19:25 | 46.85177 | 7.94416 | 39047 ft | 482 kts | 29° |
| 2026-05-07 19:25 | 46.90841 | 7.99600 | 39033 ft | 481 kts | 29° |
| 2026-05-07 19:26 | 46.96489 | 8.04783 | 39037 ft | 480 kts | 29° |
| 2026-05-07 19:26 | 47.02173 | 8.10012 | 39037 ft | 480 kts | 29° |
| 2026-05-07 19:27 | 47.07808 | 8.15208 | 39030 ft | 479 kts | 29° |
| 2026-05-07 19:27 | 47.13429 | 8.20404 | 39026 ft | 479 kts | 29° |
| 2026-05-07 19:28 | 47.19067 | 8.25631 | 39021 ft | 478 kts | 29° |
| 2026-05-07 19:28 | 47.24669 | 8.30836 | 39016 ft | 478 kts | 29° |
| 2026-05-07 19:29 | 47.30271 | 8.36055 | 39025 ft | 477 kts | 29° |
| 2026-05-07 19:29 | 47.35881 | 8.41294 | 39019 ft | 477 kts | 29° |
| 2026-05-07 19:30 | 47.41458 | 8.46517 | 39030 ft | 476 kts | 29° |
| 2026-05-07 19:30 | 47.47075 | 8.51789 | 39031 ft | 476 kts | 30° |
| 2026-05-07 19:31 | 47.52644 | 8.57030 | 39035 ft | 476 kts | 30° |
| 2026-05-07 19:31 | 47.58255 | 8.62325 | 39029 ft | 477 kts | 30° |
| 2026-05-07 19:32 | 47.63858 | 8.67625 | 39033 ft | 477 kts | 30° |
| 2026-05-07 19:32 | 47.69401 | 8.72882 | 39042 ft | 477 kts | 30° |
| 2026-05-07 19:33 | 47.75027 | 8.78232 | 39056 ft | 478 kts | 30° |
| 2026-05-07 19:33 | 47.80612 | 8.83557 | 39050 ft | 478 kts | 30° |
| 2026-05-07 19:34 | 47.86184 | 8.88883 | 39063 ft | 478 kts | 30° |
| 2026-05-07 19:34 | 47.91798 | 8.94263 | 39052 ft | 478 kts | 30° |
| 2026-05-07 19:35 | 47.97352 | 8.99600 | 39062 ft | 478 kts | 30° |
| 2026-05-07 19:35 | 48.02940 | 9.04983 | 39063 ft | 478 kts | 30° |
| 2026-05-07 19:36 | 48.08534 | 9.10385 | 39070 ft | 478 kts | 30° |
| 2026-05-07 19:36 | 48.14169 | 9.15690 | 39069 ft | 475 kts | 24° |
| 2026-05-07 19:37 | 48.20343 | 9.18819 | 39067 ft | 466 kts | 6° |
| 2026-05-07 19:37 | 48.26735 | 9.19942 | 39062 ft | 464 kts | 3° |
| 2026-05-07 19:38 | 48.33173 | 9.21042 | 39067 ft | 464 kts | 3° |
| 2026-05-07 19:38 | 48.39571 | 9.22131 | 39065 ft | 464 kts | 3° |
| 2026-05-07 19:39 | 48.45982 | 9.23217 | 39071 ft | 464 kts | 3° |
| 2026-05-07 19:39 | 48.51340 | 9.24126 | 39074 ft | 464 kts | 3° |
| 2026-05-07 19:40 | 48.58801 | 9.25396 | 39079 ft | 464 kts | 3° |
| 2026-05-07 19:40 | 48.65245 | 9.26469 | 39078 ft | 463 kts | 2° |
| 2026-05-07 19:41 | 48.71635 | 9.27426 | 39073 ft | 463 kts | 2° |
| 2026-05-07 19:41 | 48.78016 | 9.28388 | 39073 ft | 463 kts | 2° |
| 2026-05-07 19:42 | 48.84435 | 9.29546 | 39063 ft | 463 kts | 4° |
| 2026-05-07 19:42 | 48.90840 | 9.30664 | 39058 ft | 463 kts | 4° |
| 2026-05-07 19:43 | 48.97226 | 9.31845 | 39052 ft | 464 kts | 4° |
| 2026-05-07 19:43 | 49.03652 | 9.33083 | 39052 ft | 464 kts | 4° |
| 2026-05-07 19:44 | 49.10045 | 9.34327 | 39055 ft | 464 kts | 4° |
| 2026-05-07 19:44 | 49.16467 | 9.35579 | 39057 ft | 464 kts | 4° |
| 2026-05-07 19:45 | 49.22854 | 9.36827 | 39059 ft | 464 kts | 4° |
| 2026-05-07 19:45 | 49.29285 | 9.38086 | 39054 ft | 465 kts | 4° |
| 2026-05-07 19:46 | 49.35675 | 9.39341 | 39055 ft | 465 kts | 4° |
| 2026-05-07 19:46 | 49.41035 | 9.40397 | 39054 ft | 465 kts | 4° |
| 2026-05-07 19:47 | 49.47450 | 9.41663 | 39061 ft | 465 kts | 4° |
| 2026-05-07 19:47 | 49.53863 | 9.42932 | 39057 ft | 465 kts | 5° |
| 2026-05-07 19:48 | 49.60283 | 9.44206 | 39056 ft | 465 kts | 5° |
| 2026-05-07 19:48 | 49.66722 | 9.45486 | 39058 ft | 465 kts | 5° |
| 2026-05-07 19:49 | 49.73102 | 9.46759 | 39058 ft | 465 kts | 5° |
| 2026-05-07 19:49 | 49.79540 | 9.48047 | 39058 ft | 465 kts | 5° |
| 2026-05-07 19:50 | 49.85934 | 9.49328 | 39060 ft | 465 kts | 5° |
| 2026-05-07 19:50 | 49.92367 | 9.50621 | 39062 ft | 464 kts | 5° |
| 2026-05-07 19:51 | 49.98756 | 9.51910 | 39063 ft | 465 kts | 5° |
| 2026-05-07 19:51 | 50.05190 | 9.53211 | 39069 ft | 465 kts | 5° |
| 2026-05-07 19:52 | 50.11598 | 9.54510 | 39073 ft | 465 kts | 5° |
| 2026-05-07 19:52 | 50.17990 | 9.55810 | 39075 ft | 465 kts | 5° |
| 2026-05-07 19:53 | 50.24426 | 9.57121 | 39076 ft | 464 kts | 5° |
| 2026-05-07 19:53 | 50.30835 | 9.58431 | 39079 ft | 465 kts | 5° |
| 2026-05-07 19:54 | 50.37226 | 9.59741 | 39084 ft | 464 kts | 5° |
| 2026-05-07 19:54 | 50.43658 | 9.61063 | 39090 ft | 465 kts | 5° |
| 2026-05-07 19:55 | 50.50056 | 9.62381 | 39090 ft | 465 kts | 5° |
| 2026-05-07 19:55 | 50.56466 | 9.63705 | 39094 ft | 464 kts | 5° |
| 2026-05-07 19:56 | 50.62841 | 9.65026 | 39098 ft | 464 kts | 5° |
| 2026-05-07 19:56 | 50.69240 | 9.66355 | 39098 ft | 464 kts | 5° |
| 2026-05-07 19:57 | 50.75677 | 9.67696 | 39102 ft | 464 kts | 5° |
| 2026-05-07 19:57 | 50.82071 | 9.69032 | 39103 ft | 464 kts | 5° |
| 2026-05-07 19:58 | 50.88466 | 9.70371 | 39104 ft | 464 kts | 5° |
| 2026-05-07 19:58 | 50.94881 | 9.71719 | 39099 ft | 465 kts | 5° |
| 2026-05-07 19:59 | 51.01281 | 9.73067 | 39102 ft | 464 kts | 5° |
| 2026-05-07 19:59 | 51.07671 | 9.74417 | 39103 ft | 464 kts | 5° |
| 2026-05-07 20:00 | 51.14107 | 9.75780 | 39102 ft | 464 kts | 5° |
| 2026-05-07 20:00 | 51.20488 | 9.77136 | 39099 ft | 464 kts | 5° |
| 2026-05-07 20:01 | 51.26910 | 9.78504 | 39099 ft | 464 kts | 5° |
| 2026-05-07 20:01 | 51.33309 | 9.79870 | 39097 ft | 464 kts | 6° |
| 2026-05-07 20:02 | 51.39686 | 9.81236 | 39100 ft | 464 kts | 6° |
| 2026-05-07 20:02 | 51.46108 | 9.82616 | 39050 ft | 465 kts | 6° |
| 2026-05-07 20:03 | 51.49277 | 9.83298 | 38775 ft | 465 kts | 6° |
| 2026-05-07 20:03 | 51.52514 | 9.83995 | 38128 ft | 465 kts | 6° |
| 2026-05-07 20:03 | 51.55697 | 9.84681 | 37346 ft | 466 kts | 6° |
| 2026-05-07 20:03 | 51.58915 | 9.85376 | 36559 ft | 466 kts | 6° |
| 2026-05-07 20:04 | 51.62140 | 9.86074 | 35796 ft | 465 kts | 6° |
| 2026-05-07 20:04 | 51.65347 | 9.86769 | 35076 ft | 463 kts | 6° |
| 2026-05-07 20:04 | 51.68512 | 9.87456 | 34375 ft | 462 kts | 7° |
| 2026-05-07 20:04 | 51.71701 | 9.88150 | 33594 ft | 460 kts | 7° |
| 2026-05-07 20:05 | 51.74880 | 9.88842 | 32768 ft | 458 kts | 7° |
| 2026-05-07 20:05 | 51.78012 | 9.89526 | 31982 ft | 457 kts | 7° |
| 2026-05-07 20:05 | 51.81174 | 9.90216 | 31209 ft | 455 kts | 7° |
| 2026-05-07 20:05 | 51.84277 | 9.90895 | 30458 ft | 454 kts | 7° |
| 2026-05-07 20:06 | 51.87413 | 9.91582 | 29643 ft | 452 kts | 7° |
| 2026-05-07 20:06 | 51.90539 | 9.92267 | 28792 ft | 452 kts | 7° |
| 2026-05-07 20:06 | 51.93664 | 9.92953 | 27975 ft | 466 kts | 7° |
| 2026-05-07 20:06 | 51.96924 | 9.93669 | 27164 ft | 471 kts | 7° |
| 2026-05-07 20:07 | 52.00139 | 9.94377 | 26395 ft | 467 kts | 7° |
| 2026-05-07 20:07 | 52.03351 | 9.95086 | 25632 ft | 462 kts | 7° |
| 2026-05-07 20:07 | 52.06525 | 9.95788 | 24880 ft | 457 kts | 7° |
| 2026-05-07 20:07 | 52.09670 | 9.96484 | 24170 ft | 453 kts | 6° |
| 2026-05-07 20:08 | 52.12741 | 9.97165 | 23445 ft | 448 kts | 6° |
| 2026-05-07 20:08 | 52.15827 | 9.97849 | 22619 ft | 444 kts | 6° |
| 2026-05-07 20:08 | 52.18849 | 9.98519 | 21823 ft | 440 kts | 6° |
| 2026-05-07 20:08 | 52.21881 | 9.99193 | 21044 ft | 435 kts | 7° |
| 2026-05-07 20:09 | 52.24877 | 9.99860 | 20302 ft | 431 kts | 7° |
| 2026-05-07 20:09 | 52.27824 | 10.00517 | 19823 ft | 421 kts | 7° |
| 2026-05-07 20:09 | 52.30603 | 10.01138 | 19473 ft | 420 kts | 7° |
| 2026-05-07 20:10 | 52.36423 | 10.02439 | 18733 ft | 418 kts | 7° |
| 2026-05-07 20:10 | 52.39298 | 10.03083 | 18379 ft | 416 kts | 7° |
| 2026-05-07 20:10 | 52.42159 | 10.03725 | 17971 ft | 414 kts | 7° |
| 2026-05-07 20:10 | 52.45005 | 10.04365 | 17565 ft | 411 kts | 7° |
| 2026-05-07 20:11 | 52.47828 | 10.05000 | 17169 ft | 408 kts | 7° |
| 2026-05-07 20:11 | 52.50639 | 10.05633 | 16775 ft | 406 kts | 7° |
| 2026-05-07 20:11 | 52.53429 | 10.06262 | 16384 ft | 404 kts | 7° |
| 2026-05-07 20:11 | 52.56204 | 10.06889 | 16001 ft | 401 kts | 7° |
| 2026-05-07 20:12 | 52.58958 | 10.07512 | 15623 ft | 399 kts | 7° |
| 2026-05-07 20:12 | 52.61698 | 10.08132 | 15248 ft | 396 kts | 7° |
| 2026-05-07 20:12 | 52.64426 | 10.08750 | 14865 ft | 394 kts | 7° |
| 2026-05-07 20:12 | 52.67132 | 10.09364 | 14511 ft | 392 kts | 7° |
| 2026-05-07 20:13 | 52.69789 | 10.09968 | 14153 ft | 390 kts | 7° |
| 2026-05-07 20:13 | 52.72474 | 10.10578 | 13783 ft | 387 kts | 7° |
| 2026-05-07 20:13 | 52.75137 | 10.11184 | 13371 ft | 385 kts | 7° |
| 2026-05-07 20:13 | 52.77785 | 10.11742 | 12974 ft | 383 kts | 4° |
| 2026-05-07 20:14 | 52.80440 | 10.11873 | 12582 ft | 380 kts | 1° |
| 2026-05-07 20:14 | 52.83075 | 10.11949 | 12203 ft | 378 kts | 1° |
| 2026-05-07 20:14 | 52.85702 | 10.12032 | 11811 ft | 376 kts | 1° |
| 2026-05-07 20:14 | 52.88319 | 10.12118 | 11429 ft | 374 kts | 1° |
| 2026-05-07 20:15 | 52.90890 | 10.12204 | 11107 ft | 371 kts | 1° |
| 2026-05-07 20:15 | 52.93469 | 10.12289 | 10994 ft | 370 kts | 1° |
| 2026-05-07 20:15 | 52.96053 | 10.12373 | 10971 ft | 371 kts | 1° |
| 2026-05-07 20:15 | 52.98639 | 10.12456 | 10974 ft | 371 kts | 1° |
| 2026-05-07 20:16 | 53.01230 | 10.12540 | 10975 ft | 371 kts | 1° |
| 2026-05-07 20:16 | 53.03819 | 10.12624 | 10974 ft | 371 kts | 1° |
| 2026-05-07 20:16 | 53.06352 | 10.12706 | 10971 ft | 361 kts | 1° |
| 2026-05-07 20:16 | 53.08797 | 10.12786 | 10914 ft | 343 kts | 1° |
| 2026-05-07 20:17 | 53.11153 | 10.12862 | 10596 ft | 334 kts | 1° |
| 2026-05-07 20:17 | 53.13456 | 10.12934 | 10223 ft | 327 kts | 1° |
| 2026-05-07 20:17 | 53.15719 | 10.13003 | 9852 ft | 321 kts | 1° |
| 2026-05-07 20:17 | 53.17931 | 10.12993 | 9442 ft | 316 kts | 354° |
| 2026-05-07 20:18 | 53.19983 | 10.11923 | 9046 ft | 311 kts | 330° |
| 2026-05-07 20:18 | 53.21749 | 10.09870 | 8657 ft | 306 kts | 324° |
| 2026-05-07 20:18 | 53.23456 | 10.07755 | 8267 ft | 302 kts | 324° |
| 2026-05-07 20:18 | 53.25105 | 10.05696 | 7889 ft | 298 kts | 324° |
| 2026-05-07 20:19 | 53.26754 | 10.03627 | 7512 ft | 294 kts | 324° |
| 2026-05-07 20:19 | 53.28389 | 10.01560 | 7131 ft | 291 kts | 324° |
| 2026-05-07 20:19 | 53.29990 | 9.99525 | 6761 ft | 288 kts | 324° |
| 2026-05-07 20:19 | 53.31539 | 9.97546 | 6395 ft | 285 kts | 324° |
| 2026-05-07 20:20 | 53.33127 | 9.95506 | 5999 ft | 282 kts | 324° |
| 2026-05-07 20:20 | 53.34682 | 9.93503 | 5590 ft | 280 kts | 324° |
| 2026-05-07 20:20 | 53.36203 | 9.91546 | 5216 ft | 278 kts | 324° |
| 2026-05-07 20:20 | 53.37640 | 9.89695 | 5037 ft | 269 kts | 324° |
| 2026-05-07 20:21 | 53.39084 | 9.87830 | 4993 ft | 254 kts | 324° |
| 2026-05-07 20:21 | 53.40452 | 9.86060 | 4997 ft | 239 kts | 324° |
| 2026-05-07 20:21 | 53.41699 | 9.84292 | 4999 ft | 242 kts | 310° |
| 2026-05-07 20:21 | 53.42414 | 9.81753 | 4997 ft | 242 kts | 278° |
| 2026-05-07 20:22 | 53.42253 | 9.78966 | 4998 ft | 242 kts | 246° |
| 2026-05-07 20:22 | 53.41343 | 9.76641 | 4994 ft | 242 kts | 229° |
| 2026-05-07 20:22 | 53.40273 | 9.74468 | 5002 ft | 241 kts | 229° |
| 2026-05-07 20:22 | 53.39205 | 9.72304 | 4990 ft | 241 kts | 229° |
| 2026-05-07 20:23 | 53.38131 | 9.70134 | 4993 ft | 241 kts | 229° |
| 2026-05-07 20:23 | 53.37058 | 9.67967 | 4995 ft | 241 kts | 229° |
| 2026-05-07 20:23 | 53.35998 | 9.65827 | 4985 ft | 241 kts | 229° |
| 2026-05-07 20:23 | 53.34924 | 9.63659 | 4986 ft | 242 kts | 229° |
| 2026-05-07 20:24 | 53.33998 | 9.61301 | 4682 ft | 244 kts | 250° |
| 2026-05-07 20:24 | 53.33836 | 9.58489 | 4299 ft | 246 kts | 281° |
| 2026-05-07 20:24 | 53.34526 | 9.55945 | 3921 ft | 245 kts | 311° |
| 2026-05-07 20:24 | 53.35697 | 9.53860 | 3529 ft | 245 kts | 324° |
| 2026-05-07 20:25 | 53.37238 | 9.52763 | 3157 ft | 240 kts | 357° |
| 2026-05-07 20:25 | 53.38818 | 9.53184 | 3005 ft | 224 kts | 30° |
| 2026-05-07 20:25 | 53.40167 | 9.54488 | 2991 ft | 226 kts | 32° |
| 2026-05-07 20:25 | 53.41412 | 9.56004 | 2991 ft | 222 kts | 44° |
| 2026-05-07 20:26 | 53.42525 | 9.57801 | 2994 ft | 222 kts | 48° |
| 2026-05-07 20:26 | 53.43599 | 9.59662 | 2994 ft | 220 kts | 49° |
| 2026-05-07 20:26 | 53.44545 | 9.61587 | 2992 ft | 206 kts | 53° |
| 2026-05-07 20:26 | 53.45421 | 9.63398 | 2996 ft | 200 kts | 53° |
| 2026-05-07 20:27 | 53.46308 | 9.65194 | 3024 ft | 199 kts | 52° |
| 2026-05-07 20:27 | 53.47198 | 9.66971 | 2997 ft | 198 kts | 52° |
| 2026-05-07 20:27 | 53.48092 | 9.68755 | 2997 ft | 200 kts | 52° |
| 2026-05-07 20:27 | 53.48982 | 9.70533 | 2998 ft | 201 kts | 52° |
| 2026-05-07 20:28 | 53.49878 | 9.72327 | 3003 ft | 200 kts | 52° |
| 2026-05-07 20:28 | 53.50774 | 9.74124 | 3024 ft | 198 kts | 52° |
| 2026-05-07 20:28 | 53.51350 | 9.75278 | 2933 ft | 191 kts | 52° |
| 2026-05-07 20:28 | 53.52251 | 9.77080 | 2559 ft | 180 kts | 53° |
| 2026-05-07 20:29 | 53.53028 | 9.78636 | 2182 ft | 171 kts | 53° |
| 2026-05-07 20:29 | 53.53770 | 9.80117 | 1965 ft | 164 kts | 53° |
| 2026-05-07 20:29 | 53.54506 | 9.81598 | 1714 ft | 165 kts | 53° |
| 2026-05-07 20:29 | 53.55237 | 9.83072 | 1398 ft | 164 kts | 53° |
| 2026-05-07 20:30 | 53.55963 | 9.84533 | 1074 ft | 158 kts | 53° |
| 2026-05-07 20:30 | 53.56677 | 9.85978 | 992 ft | 162 kts | 52° |
| 2026-05-07 20:30 | 53.57395 | 9.87428 | 1013 ft | 160 kts | 52° |
| 2026-05-07 20:30 | 53.58106 | 9.88859 | 976 ft | 163 kts | 52° |
| 2026-05-07 20:31 | 53.58823 | 9.90298 | 817 ft | 155 kts | 52° |
| 2026-05-07 20:31 | 53.59467 | 9.91606 | 665 ft | 149 kts | 51° |
| 2026-05-07 20:31 | 53.60142 | 9.92986 | 527 ft | 157 kts | 51° |
| 2026-05-07 20:31 | 53.60608 | 9.93943 | 469 ft | 162 kts | 51° |
| 2026-05-07 20:32 | 53.61594 | 9.95933 | 248 ft | 172 kts | 51° |
| 2026-05-07 20:32 | 53.61945 | 9.96639 | 131 ft | 172 kts | 50° |
| 2026-05-07 20:32 | 53.62525 | 9.97791 | 48 ft | 146 kts | 50° |
| 2026-05-07 20:32 | 53.63187 | 9.99126 | 51 ft | 65 kts | 50° |
| 2026-05-07 20:33 | 53.63255 | 9.99268 | 51 ft | 15 kts | 54° |
| 2026-05-07 20:33 | 53.63290 | 9.99447 | 50 ft | 18 kts | 86° |
| 2026-05-07 20:33 | 53.63283 | 9.99594 | 47 ft | 9 kts | 98° |
| 2026-05-07 20:33 | 53.63275 | 9.99687 | 50 ft | 6 kts | 97° |
| 2026-05-07 20:34 | 53.63282 | 9.99765 | 50 ft | 8 kts | 63° |
| 2026-05-07 20:34 | 53.63311 | 9.99834 | 48 ft | 0 kts | 50° |
| 2026-05-07 20:37 | 53.63321 | 9.99852 | 50 ft | 4 kts | 49° |
| 2026-05-07 20:37 | 53.63346 | 9.99900 | 50 ft | 7 kts | 49° |
| 2026-05-07 20:37 | 53.63382 | 9.99972 | 48 ft | 8 kts | 50° |
| 2026-05-07 20:37 | 53.63422 | 10.00062 | 50 ft | 11 kts | 65° |
| 2026-05-07 20:38 | 53.63401 | 10.00162 | 50 ft | 10 kts | 159° |
| 2026-05-07 20:38 | 53.63347 | 10.00168 | 50 ft | 5 kts | 170° |
| 2026-05-07 20:38 | 53.63334 | 10.00223 | 50 ft | 7 kts | 102° |
| 2026-05-07 20:38 | 53.63331 | 10.00271 | 50 ft | 7 kts | 91° |
| 2026-05-07 20:39 | 53.63333 | 10.00327 | 50 ft | 3 kts | 86° |
| 2026-05-07 20:39 | 53.63333 | 10.00350 | 50 ft | 1 kts | 86° |
| 2026-05-07 20:39 | 53.63333 | 10.00353 | 50 ft | 0 kts | 86° |